sensor_id;sensor_type;location;lat;lon;timestamp;P1;durP1;ratioP1;P2;durP2;ratioP2
35540;SDS011;21650;48.840;9.162;2022-09-14T00:02:23;5.20;;;2.23;;
35540;SDS011;21650;48.840;9.162;2022-09-14T00:04:48;5.90;;;2.00;;
35540;SDS011;21650;48.840;9.162;2022-09-14T00:07:15;2.90;;;2.27;;
35540;SDS011;21650;48.840;9.162;2022-09-14T00:09:41;3.10;;;2.13;;
35540;SDS011;21650;48.840;9.162;2022-09-14T00:12:07;3.60;;;2.47;;
35540;SDS011;21650;48.840;9.162;2022-09-14T00:14:34;3.93;;;2.10;;
35540;SDS011;21650;48.840;9.162;2022-09-14T00:17:00;4.50;;;2.43;;
35540;SDS011;21650;48.840;9.162;2022-09-14T00:19:25;3.30;;;2.30;;
35540;SDS011;21650;48.840;9.162;2022-09-14T00:21:52;3.10;;;2.40;;
35540;SDS011;21650;48.840;9.162;2022-09-14T00:24:20;3.53;;;2.27;;
35540;SDS011;21650;48.840;9.162;2022-09-14T00:26:46;4.27;;;2.20;;
35540;SDS011;21650;48.840;9.162;2022-09-14T00:29:11;5.67;;;2.67;;
35540;SDS011;21650;48.840;9.162;2022-09-14T00:31:37;6.43;;;2.37;;
35540;SDS011;21650;48.840;9.162;2022-09-14T00:34:04;4.00;;;2.57;;
35540;SDS011;21650;48.840;9.162;2022-09-14T00:36:31;5.70;;;2.87;;
35540;SDS011;21650;48.840;9.162;2022-09-14T00:39:01;3.97;;;2.70;;
35540;SDS011;21650;48.840;9.162;2022-09-14T00:41:28;4.23;;;2.70;;
35540;SDS011;21650;48.840;9.162;2022-09-14T00:43:57;3.47;;;3.10;;
35540;SDS011;21650;48.840;9.162;2022-09-14T00:46:27;8.60;;;2.50;;
35540;SDS011;21650;48.840;9.162;2022-09-14T00:48:55;6.20;;;3.10;;
35540;SDS011;21650;48.840;9.162;2022-09-14T00:51:23;7.07;;;2.43;;
35540;SDS011;21650;48.840;9.162;2022-09-14T00:53:50;5.13;;;2.57;;
35540;SDS011;21650;48.840;9.162;2022-09-14T00:56:16;5.03;;;3.00;;
35540;SDS011;21650;48.840;9.162;2022-09-14T00:58:42;5.83;;;2.70;;
35540;SDS011;21650;48.840;9.162;2022-09-14T01:01:09;4.17;;;2.67;;
35540;SDS011;21650;48.840;9.162;2022-09-14T01:03:36;7.80;;;3.77;;
35540;SDS011;21650;48.840;9.162;2022-09-14T01:08:34;4.70;;;2.63;;
35540;SDS011;21650;48.840;9.162;2022-09-14T01:11:21;4.60;;;2.93;;
35540;SDS011;21650;48.840;9.162;2022-09-14T01:14:07;5.07;;;2.70;;
35540;SDS011;21650;48.840;9.162;2022-09-14T01:19:41;6.80;;;2.87;;
35540;SDS011;21650;48.840;9.162;2022-09-14T01:22:31;6.17;;;2.90;;
35540;SDS011;21650;48.840;9.162;2022-09-14T01:27:52;6.50;;;3.20;;
35540;SDS011;21650;48.840;9.162;2022-09-14T01:30:20;5.20;;;3.20;;
35540;SDS011;21650;48.840;9.162;2022-09-14T01:35:22;5.53;;;3.40;;
35540;SDS011;21650;48.840;9.162;2022-09-14T01:37:57;11.63;;;4.40;;
35540;SDS011;21650;48.840;9.162;2022-09-14T01:40:29;18.20;;;5.47;;
35540;SDS011;21650;48.840;9.162;2022-09-14T01:43:10;12.90;;;4.57;;
35540;SDS011;21650;48.840;9.162;2022-09-14T01:45:52;7.27;;;3.40;;
35540;SDS011;21650;48.840;9.162;2022-09-14T01:48:22;8.90;;;3.10;;
35540;SDS011;21650;48.840;9.162;2022-09-14T01:50:54;3.97;;;2.40;;
35540;SDS011;21650;48.840;9.162;2022-09-14T01:53:24;5.77;;;2.87;;
35540;SDS011;21650;48.840;9.162;2022-09-14T01:56:00;4.87;;;3.27;;
35540;SDS011;21650;48.840;9.162;2022-09-14T01:58:37;5.23;;;3.43;;
35540;SDS011;21650;48.840;9.162;2022-09-14T02:01:09;4.50;;;3.03;;
35540;SDS011;21650;48.840;9.162;2022-09-14T02:03:42;4.93;;;3.70;;
35540;SDS011;21650;48.840;9.162;2022-09-14T02:09:11;7.47;;;3.80;;
35540;SDS011;21650;48.840;9.162;2022-09-14T02:11:42;5.47;;;3.43;;
35540;SDS011;21650;48.840;9.162;2022-09-14T02:14:08;7.97;;;3.00;;
35540;SDS011;21650;48.840;9.162;2022-09-14T02:16:34;4.80;;;3.00;;
35540;SDS011;21650;48.840;9.162;2022-09-14T02:18:59;6.73;;;3.53;;
35540;SDS011;21650;48.840;9.162;2022-09-14T02:21:27;6.63;;;3.37;;
35540;SDS011;21650;48.840;9.162;2022-09-14T02:23:54;6.13;;;3.17;;
35540;SDS011;21650;48.840;9.162;2022-09-14T02:26:20;6.93;;;4.47;;
35540;SDS011;21650;48.840;9.162;2022-09-14T02:28:47;4.63;;;3.10;;
35540;SDS011;21650;48.840;9.162;2022-09-14T02:31:21;8.50;;;3.97;;
35540;SDS011;21650;48.840;9.162;2022-09-14T02:34:15;6.63;;;3.33;;
35540;SDS011;21650;48.840;9.162;2022-09-14T02:44:34;5.70;;;3.53;;
35540;SDS011;21650;48.840;9.162;2022-09-14T02:47:19;6.30;;;3.33;;
35540;SDS011;21650;48.840;9.162;2022-09-14T02:52:50;6.90;;;4.33;;
35540;SDS011;21650;48.840;9.162;2022-09-14T02:55:23;5.20;;;3.03;;
35540;SDS011;21650;48.840;9.162;2022-09-14T03:00:36;4.73;;;3.70;;
35540;SDS011;21650;48.840;9.162;2022-09-14T03:03:07;8.63;;;3.83;;
35540;SDS011;21650;48.840;9.162;2022-09-14T03:05:35;4.50;;;3.30;;
35540;SDS011;21650;48.840;9.162;2022-09-14T03:08:01;5.40;;;3.13;;
35540;SDS011;21650;48.840;9.162;2022-09-14T03:10:27;7.67;;;4.07;;
35540;SDS011;21650;48.840;9.162;2022-09-14T03:12:54;5.83;;;3.67;;
35540;SDS011;21650;48.840;9.162;2022-09-14T03:15:20;5.73;;;3.70;;
35540;SDS011;21650;48.840;9.162;2022-09-14T03:17:46;9.67;;;4.20;;
35540;SDS011;21650;48.840;9.162;2022-09-14T03:20:22;6.37;;;3.40;;
35540;SDS011;21650;48.840;9.162;2022-09-14T03:22:50;6.80;;;3.40;;
35540;SDS011;21650;48.840;9.162;2022-09-14T03:25:16;7.53;;;4.00;;
35540;SDS011;21650;48.840;9.162;2022-09-14T03:27:50;6.50;;;3.47;;
35540;SDS011;21650;48.840;9.162;2022-09-14T03:30:18;8.27;;;4.27;;
35540;SDS011;21650;48.840;9.162;2022-09-14T03:32:44;4.97;;;3.63;;
35540;SDS011;21650;48.840;9.162;2022-09-14T03:35:10;6.67;;;3.73;;
35540;SDS011;21650;48.840;9.162;2022-09-14T03:37:37;6.77;;;4.47;;
35540;SDS011;21650;48.840;9.162;2022-09-14T03:40:04;5.03;;;3.70;;
35540;SDS011;21650;48.840;9.162;2022-09-14T03:42:30;5.50;;;4.00;;
35540;SDS011;21650;48.840;9.162;2022-09-14T03:44:56;5.37;;;3.53;;
35540;SDS011;21650;48.840;9.162;2022-09-14T03:47:22;6.13;;;4.47;;
35540;SDS011;21650;48.840;9.162;2022-09-14T03:49:47;6.93;;;3.97;;
35540;SDS011;21650;48.840;9.162;2022-09-14T03:52:13;4.57;;;3.90;;
35540;SDS011;21650;48.840;9.162;2022-09-14T03:54:39;7.53;;;4.00;;
35540;SDS011;21650;48.840;9.162;2022-09-14T03:57:04;5.27;;;3.87;;
35540;SDS011;21650;48.840;9.162;2022-09-14T03:59:31;6.90;;;4.10;;
35540;SDS011;21650;48.840;9.162;2022-09-14T04:01:57;6.13;;;3.50;;
35540;SDS011;21650;48.840;9.162;2022-09-14T04:04:23;4.40;;;3.73;;
35540;SDS011;21650;48.840;9.162;2022-09-14T04:06:48;7.93;;;3.90;;
35540;SDS011;21650;48.840;9.162;2022-09-14T04:09:14;9.00;;;3.63;;
35540;SDS011;21650;48.840;9.162;2022-09-14T04:11:39;9.83;;;4.03;;
35540;SDS011;21650;48.840;9.162;2022-09-14T04:14:05;5.63;;;3.70;;
35540;SDS011;21650;48.840;9.162;2022-09-14T04:16:32;4.67;;;3.57;;
35540;SDS011;21650;48.840;9.162;2022-09-14T04:18:58;9.87;;;4.07;;
35540;SDS011;21650;48.840;9.162;2022-09-14T04:21:23;8.00;;;4.23;;
35540;SDS011;21650;48.840;9.162;2022-09-14T04:23:53;7.03;;;3.73;;
35540;SDS011;21650;48.840;9.162;2022-09-14T04:26:21;6.23;;;4.20;;
35540;SDS011;21650;48.840;9.162;2022-09-14T04:28:48;7.07;;;4.10;;
35540;SDS011;21650;48.840;9.162;2022-09-14T04:31:14;4.57;;;4.00;;
35540;SDS011;21650;48.840;9.162;2022-09-14T04:33:40;7.10;;;4.20;;
35540;SDS011;21650;48.840;9.162;2022-09-14T04:36:11;5.33;;;4.17;;
35540;SDS011;21650;48.840;9.162;2022-09-14T04:38:39;8.97;;;4.93;;
35540;SDS011;21650;48.840;9.162;2022-09-14T04:41:09;7.27;;;4.93;;
35540;SDS011;21650;48.840;9.162;2022-09-14T04:43:39;9.40;;;5.13;;
35540;SDS011;21650;48.840;9.162;2022-09-14T04:46:07;8.10;;;4.63;;
35540;SDS011;21650;48.840;9.162;2022-09-14T04:48:35;7.53;;;4.47;;
35540;SDS011;21650;48.840;9.162;2022-09-14T04:51:05;9.70;;;4.67;;
35540;SDS011;21650;48.840;9.162;2022-09-14T04:53:32;7.10;;;4.30;;
35540;SDS011;21650;48.840;9.162;2022-09-14T04:55:59;6.40;;;4.47;;
35540;SDS011;21650;48.840;9.162;2022-09-14T04:58:26;7.17;;;4.70;;
35540;SDS011;21650;48.840;9.162;2022-09-14T05:00:53;5.90;;;4.50;;
35540;SDS011;21650;48.840;9.162;2022-09-14T05:03:20;7.73;;;3.60;;
35540;SDS011;21650;48.840;9.162;2022-09-14T05:05:46;6.27;;;3.60;;
35540;SDS011;21650;48.840;9.162;2022-09-14T05:08:11;5.67;;;3.63;;
35540;SDS011;21650;48.840;9.162;2022-09-14T05:10:37;4.03;;;3.67;;
35540;SDS011;21650;48.840;9.162;2022-09-14T05:13:02;6.53;;;4.23;;
35540;SDS011;21650;48.840;9.162;2022-09-14T05:15:28;5.23;;;4.40;;
35540;SDS011;21650;48.840;9.162;2022-09-14T05:17:54;15.03;;;7.70;;
35540;SDS011;21650;48.840;9.162;2022-09-14T05:20:19;6.90;;;5.93;;
35540;SDS011;21650;48.840;9.162;2022-09-14T05:22:48;8.07;;;7.20;;
35540;SDS011;21650;48.840;9.162;2022-09-14T05:25:14;9.60;;;7.30;;
35540;SDS011;21650;48.840;9.162;2022-09-14T05:27:40;9.40;;;7.37;;
35540;SDS011;21650;48.840;9.162;2022-09-14T05:30:06;9.50;;;7.90;;
35540;SDS011;21650;48.840;9.162;2022-09-14T05:32:32;10.30;;;8.47;;
35540;SDS011;21650;48.840;9.162;2022-09-14T05:34:58;12.77;;;7.50;;
35540;SDS011;21650;48.840;9.162;2022-09-14T05:37:23;8.47;;;6.97;;
35540;SDS011;21650;48.840;9.162;2022-09-14T05:39:49;9.33;;;7.90;;
35540;SDS011;21650;48.840;9.162;2022-09-14T05:42:14;13.23;;;8.80;;
35540;SDS011;21650;48.840;9.162;2022-09-14T05:44:40;9.17;;;7.50;;
35540;SDS011;21650;48.840;9.162;2022-09-14T05:47:05;10.73;;;7.00;;
35540;SDS011;21650;48.840;9.162;2022-09-14T05:49:31;8.20;;;7.40;;
35540;SDS011;21650;48.840;9.162;2022-09-14T05:51:56;10.60;;;7.40;;
35540;SDS011;21650;48.840;9.162;2022-09-14T05:54:22;8.93;;;7.00;;
35540;SDS011;21650;48.840;9.162;2022-09-14T05:56:47;12.07;;;7.17;;
35540;SDS011;21650;48.840;9.162;2022-09-14T05:59:13;8.37;;;6.70;;
35540;SDS011;21650;48.840;9.162;2022-09-14T06:01:39;9.90;;;6.43;;
35540;SDS011;21650;48.840;9.162;2022-09-14T06:04:05;7.87;;;6.40;;
35540;SDS011;21650;48.840;9.162;2022-09-14T06:06:32;9.50;;;7.20;;
35540;SDS011;21650;48.840;9.162;2022-09-14T06:08:58;8.40;;;6.53;;
35540;SDS011;21650;48.840;9.162;2022-09-14T06:11:25;9.27;;;6.70;;
35540;SDS011;21650;48.840;9.162;2022-09-14T06:13:53;9.23;;;6.90;;
35540;SDS011;21650;48.840;9.162;2022-09-14T06:16:20;8.83;;;6.07;;
35540;SDS011;21650;48.840;9.162;2022-09-14T06:18:47;10.57;;;6.53;;
35540;SDS011;21650;48.840;9.162;2022-09-14T06:21:14;8.37;;;6.90;;
35540;SDS011;21650;48.840;9.162;2022-09-14T06:23:41;7.33;;;6.43;;
35540;SDS011;21650;48.840;9.162;2022-09-14T06:26:08;6.93;;;6.23;;
35540;SDS011;21650;48.840;9.162;2022-09-14T06:28:34;9.13;;;7.53;;
35540;SDS011;21650;48.840;9.162;2022-09-14T06:31:00;11.50;;;7.07;;
35540;SDS011;21650;48.840;9.162;2022-09-14T06:33:28;8.93;;;6.57;;
35540;SDS011;21650;48.840;9.162;2022-09-14T06:35:58;8.33;;;6.13;;
35540;SDS011;21650;48.840;9.162;2022-09-14T06:38:26;7.73;;;5.63;;
35540;SDS011;21650;48.840;9.162;2022-09-14T06:40:53;7.27;;;6.53;;
35540;SDS011;21650;48.840;9.162;2022-09-14T06:43:21;9.20;;;5.30;;
35540;SDS011;21650;48.840;9.162;2022-09-14T06:45:57;7.43;;;5.30;;
35540;SDS011;21650;48.840;9.162;2022-09-14T06:48:24;11.47;;;5.97;;
35540;SDS011;21650;48.840;9.162;2022-09-14T06:50:51;6.10;;;5.17;;
35540;SDS011;21650;48.840;9.162;2022-09-14T06:53:17;6.57;;;4.40;;
35540;SDS011;21650;48.840;9.162;2022-09-14T06:55:42;6.33;;;4.60;;
35540;SDS011;21650;48.840;9.162;2022-09-14T06:58:09;8.13;;;4.57;;
35540;SDS011;21650;48.840;9.162;2022-09-14T07:00:35;7.60;;;4.97;;
35540;SDS011;21650;48.840;9.162;2022-09-14T07:03:01;5.57;;;4.40;;
35540;SDS011;21650;48.840;9.162;2022-09-14T07:05:26;5.67;;;4.67;;
35540;SDS011;21650;48.840;9.162;2022-09-14T07:07:53;5.73;;;4.77;;
35540;SDS011;21650;48.840;9.162;2022-09-14T07:10:18;7.00;;;4.10;;
35540;SDS011;21650;48.840;9.162;2022-09-14T07:12:44;5.17;;;4.67;;
35540;SDS011;21650;48.840;9.162;2022-09-14T07:15:10;7.10;;;4.03;;
35540;SDS011;21650;48.840;9.162;2022-09-14T07:17:35;6.37;;;4.63;;
35540;SDS011;21650;48.840;9.162;2022-09-14T07:20:02;6.00;;;5.03;;
35540;SDS011;21650;48.840;9.162;2022-09-14T07:22:33;5.00;;;4.50;;
35540;SDS011;21650;48.840;9.162;2022-09-14T07:24:59;6.93;;;5.30;;
35540;SDS011;21650;48.840;9.162;2022-09-14T07:27:25;7.97;;;3.97;;
35540;SDS011;21650;48.840;9.162;2022-09-14T07:29:50;6.70;;;4.10;;
35540;SDS011;21650;48.840;9.162;2022-09-14T07:32:16;6.20;;;4.23;;
35540;SDS011;21650;48.840;9.162;2022-09-14T07:34:42;6.30;;;3.50;;
35540;SDS011;21650;48.840;9.162;2022-09-14T07:37:07;4.73;;;3.37;;
35540;SDS011;21650;48.840;9.162;2022-09-14T07:39:34;4.53;;;3.83;;
35540;SDS011;21650;48.840;9.162;2022-09-14T07:42:00;5.40;;;4.60;;
35540;SDS011;21650;48.840;9.162;2022-09-14T07:44:25;9.33;;;5.30;;
35540;SDS011;21650;48.840;9.162;2022-09-14T07:46:51;5.80;;;4.13;;
35540;SDS011;21650;48.840;9.162;2022-09-14T07:49:17;5.10;;;4.60;;
35540;SDS011;21650;48.840;9.162;2022-09-14T07:51:43;6.43;;;4.30;;
35540;SDS011;21650;48.840;9.162;2022-09-14T07:54:11;6.10;;;4.10;;
35540;SDS011;21650;48.840;9.162;2022-09-14T07:56:38;5.57;;;4.43;;
35540;SDS011;21650;48.840;9.162;2022-09-14T07:59:04;6.97;;;5.30;;
35540;SDS011;21650;48.840;9.162;2022-09-14T08:01:30;6.27;;;4.17;;
35540;SDS011;21650;48.840;9.162;2022-09-14T08:04:00;4.80;;;3.80;;
35540;SDS011;21650;48.840;9.162;2022-09-14T08:06:26;5.27;;;4.00;;
35540;SDS011;21650;48.840;9.162;2022-09-14T08:08:53;4.97;;;3.43;;
35540;SDS011;21650;48.840;9.162;2022-09-14T08:11:26;4.80;;;3.20;;
35540;SDS011;21650;48.840;9.162;2022-09-14T08:13:54;5.60;;;3.43;;
35540;SDS011;21650;48.840;9.162;2022-09-14T08:16:26;4.40;;;3.30;;
35540;SDS011;21650;48.840;9.162;2022-09-14T08:18:54;5.07;;;3.33;;
35540;SDS011;21650;48.840;9.162;2022-09-14T08:21:24;3.73;;;3.33;;
35540;SDS011;21650;48.840;9.162;2022-09-14T08:23:51;5.67;;;3.50;;
35540;SDS011;21650;48.840;9.162;2022-09-14T08:26:19;5.07;;;3.67;;
35540;SDS011;21650;48.840;9.162;2022-09-14T08:28:46;7.13;;;4.90;;
35540;SDS011;21650;48.840;9.162;2022-09-14T08:31:15;5.20;;;4.70;;
35540;SDS011;21650;48.840;9.162;2022-09-14T08:33:43;6.00;;;4.33;;
35540;SDS011;21650;48.840;9.162;2022-09-14T08:36:11;3.90;;;3.50;;
35540;SDS011;21650;48.840;9.162;2022-09-14T08:38:39;4.30;;;3.70;;
35540;SDS011;21650;48.840;9.162;2022-09-14T08:41:18;7.30;;;3.50;;
35540;SDS011;21650;48.840;9.162;2022-09-14T08:44:14;3.40;;;3.10;;
35540;SDS011;21650;48.840;9.162;2022-09-14T08:46:42;8.50;;;3.27;;
35540;SDS011;21650;48.840;9.162;2022-09-14T08:49:13;5.03;;;3.60;;
35540;SDS011;21650;48.840;9.162;2022-09-14T08:51:54;6.50;;;3.47;;
35540;SDS011;21650;48.840;9.162;2022-09-14T08:54:21;5.93;;;3.80;;
35540;SDS011;21650;48.840;9.162;2022-09-14T08:56:48;4.23;;;3.60;;
35540;SDS011;21650;48.840;9.162;2022-09-14T09:04:56;5.07;;;3.33;;
35540;SDS011;21650;48.840;9.162;2022-09-14T09:07:42;4.70;;;4.10;;
35540;SDS011;21650;48.840;9.162;2022-09-14T09:10:30;6.47;;;4.10;;
35540;SDS011;21650;48.840;9.162;2022-09-14T09:12:58;6.43;;;3.87;;
35540;SDS011;21650;48.840;9.162;2022-09-14T09:15:29;6.23;;;3.10;;
35540;SDS011;21650;48.840;9.162;2022-09-14T09:18:04;5.03;;;2.97;;
35540;SDS011;21650;48.840;9.162;2022-09-14T09:23:41;4.27;;;2.83;;
35540;SDS011;21650;48.840;9.162;2022-09-14T09:28:49;2.87;;;2.27;;
35540;SDS011;21650;48.840;9.162;2022-09-14T09:31:50;4.50;;;2.00;;
35540;SDS011;21650;48.840;9.162;2022-09-14T09:34:21;3.77;;;2.47;;
35540;SDS011;21650;48.840;9.162;2022-09-14T09:36:54;2.80;;;2.23;;
35540;SDS011;21650;48.840;9.162;2022-09-14T09:39:20;3.80;;;1.90;;
35540;SDS011;21650;48.840;9.162;2022-09-14T09:44:16;3.30;;;2.90;;
35540;SDS011;21650;48.840;9.162;2022-09-14T09:46:47;3.33;;;2.50;;
35540;SDS011;21650;48.840;9.162;2022-09-14T09:49:17;3.17;;;2.55;;
35540;SDS011;21650;48.840;9.162;2022-09-14T09:52:10;8.75;;;3.30;;
35540;SDS011;21650;48.840;9.162;2022-09-14T09:54:38;6.65;;;2.83;;
35540;SDS011;21650;48.840;9.162;2022-09-14T09:57:18;4.90;;;2.88;;
35540;SDS011;21650;48.840;9.162;2022-09-14T10:02:51;3.25;;;2.35;;
35540;SDS011;21650;48.840;9.162;2022-09-14T10:05:24;3.50;;;2.30;;
35540;SDS011;21650;48.840;9.162;2022-09-14T10:08:02;3.30;;;2.70;;
35540;SDS011;21650;48.840;9.162;2022-09-14T10:10:43;4.68;;;1.60;;
35540;SDS011;21650;48.840;9.162;2022-09-14T10:13:29;5.85;;;2.58;;
35540;SDS011;21650;48.840;9.162;2022-09-14T10:16:06;2.60;;;2.03;;
35540;SDS011;21650;48.840;9.162;2022-09-14T10:18:46;3.50;;;2.22;;
35540;SDS011;21650;48.840;9.162;2022-09-14T10:21:35;3.17;;;2.17;;
35540;SDS011;21650;48.840;9.162;2022-09-14T10:24:50;6.50;;;2.10;;
35540;SDS011;21650;48.840;9.162;2022-09-14T10:37:08;3.50;;;2.40;;
35540;SDS011;21650;48.840;9.162;2022-09-14T10:44:25;2.88;;;2.10;;
35540;SDS011;21650;48.840;9.162;2022-09-14T10:50:10;2.75;;;2.40;;
35540;SDS011;21650;48.840;9.162;2022-09-14T10:52:57;4.35;;;2.13;;
35540;SDS011;21650;48.840;9.162;2022-09-14T10:55:58;3.63;;;1.88;;
35540;SDS011;21650;48.840;9.162;2022-09-14T11:05:32;4.03;;;2.20;;
35540;SDS011;21650;48.840;9.162;2022-09-14T11:13:21;3.08;;;1.65;;
35540;SDS011;21650;48.840;9.162;2022-09-14T11:16:11;2.40;;;1.85;;
35540;SDS011;21650;48.840;9.162;2022-09-14T11:19:11;2.85;;;1.83;;
35540;SDS011;21650;48.840;9.162;2022-09-14T11:24:23;5.43;;;1.85;;
35540;SDS011;21650;48.840;9.162;2022-09-14T11:30:10;3.65;;;2.00;;
35540;SDS011;21650;48.840;9.162;2022-09-14T11:33:04;1.98;;;1.60;;
35540;SDS011;21650;48.840;9.162;2022-09-14T11:35:41;9.32;;;3.60;;
35540;SDS011;21650;48.840;9.162;2022-09-14T11:38:17;2.13;;;1.80;;
35540;SDS011;21650;48.840;9.162;2022-09-14T11:40:54;3.33;;;1.92;;
35540;SDS011;21650;48.840;9.162;2022-09-14T11:43:46;4.80;;;2.13;;
35540;SDS011;21650;48.840;9.162;2022-09-14T11:46:44;5.43;;;2.10;;
35540;SDS011;21650;48.840;9.162;2022-09-14T11:54:47;3.42;;;1.80;;
35540;SDS011;21650;48.840;9.162;2022-09-14T11:57:17;3.35;;;1.55;;
35540;SDS011;21650;48.840;9.162;2022-09-14T11:59:46;3.72;;;1.90;;
35540;SDS011;21650;48.840;9.162;2022-09-14T12:12:39;3.60;;;1.83;;
35540;SDS011;21650;48.840;9.162;2022-09-14T12:17:49;5.30;;;2.13;;
35540;SDS011;21650;48.840;9.162;2022-09-14T12:20:31;2.63;;;2.08;;
35540;SDS011;21650;48.840;9.162;2022-09-14T12:36:05;2.80;;;1.90;;
35540;SDS011;21650;48.840;9.162;2022-09-14T12:38:41;4.50;;;1.97;;
35540;SDS011;21650;48.840;9.162;2022-09-14T12:43:59;6.40;;;1.90;;
35540;SDS011;21650;48.840;9.162;2022-09-14T12:46:31;3.43;;;2.10;;
35540;SDS011;21650;48.840;9.162;2022-09-14T12:49:00;4.70;;;2.00;;
35540;SDS011;21650;48.840;9.162;2022-09-14T12:57:00;7.33;;;2.70;;
35540;SDS011;21650;48.840;9.162;2022-09-14T13:05:20;3.53;;;2.30;;
35540;SDS011;21650;48.840;9.162;2022-09-14T13:07:49;4.20;;;2.80;;
35540;SDS011;21650;48.840;9.162;2022-09-14T13:10:25;2.77;;;2.00;;
35540;SDS011;21650;48.840;9.162;2022-09-14T13:12:58;6.27;;;2.27;;
35540;SDS011;21650;48.840;9.162;2022-09-14T13:15:27;4.53;;;2.40;;
35540;SDS011;21650;48.840;9.162;2022-09-14T13:18:01;4.30;;;2.10;;
35540;SDS011;21650;48.840;9.162;2022-09-14T13:20:31;2.20;;;2.00;;
35540;SDS011;21650;48.840;9.162;2022-09-14T13:22:59;4.30;;;2.77;;
35540;SDS011;21650;48.840;9.162;2022-09-14T13:27:59;5.83;;;1.70;;
35540;SDS011;21650;48.840;9.162;2022-09-14T13:30:28;3.57;;;1.67;;
35540;SDS011;21650;48.840;9.162;2022-09-14T13:32:55;5.20;;;1.70;;
35540;SDS011;21650;48.840;9.162;2022-09-14T13:35:29;3.80;;;1.67;;
35540;SDS011;21650;48.840;9.162;2022-09-14T13:37:59;2.50;;;1.30;;
35540;SDS011;21650;48.840;9.162;2022-09-14T13:40:31;5.10;;;1.33;;
35540;SDS011;21650;48.840;9.162;2022-09-14T13:42:58;5.73;;;1.50;;
35540;SDS011;21650;48.840;9.162;2022-09-14T13:45:24;2.37;;;1.63;;
35540;SDS011;21650;48.840;9.162;2022-09-14T13:47:51;1.77;;;1.30;;
35540;SDS011;21650;48.840;9.162;2022-09-14T13:50:17;2.13;;;1.20;;
35540;SDS011;21650;48.840;9.162;2022-09-14T13:52:47;4.73;;;1.20;;
35540;SDS011;21650;48.840;9.162;2022-09-14T14:03:39;2.53;;;1.40;;
35540;SDS011;21650;48.840;9.162;2022-09-14T14:06:19;2.17;;;1.27;;
35540;SDS011;21650;48.840;9.162;2022-09-14T14:08:59;1.67;;;1.00;;
35540;SDS011;21650;48.840;9.162;2022-09-14T14:11:32;1.20;;;1.00;;
35540;SDS011;21650;48.840;9.162;2022-09-14T14:14:17;2.30;;;1.37;;
35540;SDS011;21650;48.840;9.162;2022-09-14T14:19:44;3.20;;;1.10;;
35540;SDS011;21650;48.840;9.162;2022-09-14T14:22:10;0.80;;;0.73;;
35540;SDS011;21650;48.840;9.162;2022-09-14T14:24:39;2.03;;;1.10;;
35540;SDS011;21650;48.840;9.162;2022-09-14T14:27:17;1.20;;;0.90;;
35540;SDS011;21650;48.840;9.162;2022-09-14T14:29:59;2.60;;;0.70;;
35540;SDS011;21650;48.840;9.162;2022-09-14T14:32:26;1.90;;;0.93;;
35540;SDS011;21650;48.840;9.162;2022-09-14T14:34:53;2.43;;;1.00;;
35540;SDS011;21650;48.840;9.162;2022-09-14T14:37:19;1.77;;;1.20;;
35540;SDS011;21650;48.840;9.162;2022-09-14T14:39:46;2.00;;;1.07;;
35540;SDS011;21650;48.840;9.162;2022-09-14T14:42:15;2.20;;;1.23;;
35540;SDS011;21650;48.840;9.162;2022-09-14T14:44:41;1.97;;;0.90;;
35540;SDS011;21650;48.840;9.162;2022-09-14T14:47:11;1.80;;;1.30;;
35540;SDS011;21650;48.840;9.162;2022-09-14T14:49:38;5.53;;;1.40;;
35540;SDS011;21650;48.840;9.162;2022-09-14T14:52:04;3.90;;;1.27;;
35540;SDS011;21650;48.840;9.162;2022-09-14T14:54:30;3.07;;;1.57;;
35540;SDS011;21650;48.840;9.162;2022-09-14T14:56:56;4.30;;;1.80;;
35540;SDS011;21650;48.840;9.162;2022-09-14T15:01:50;1.20;;;0.87;;
35540;SDS011;21650;48.840;9.162;2022-09-14T15:04:17;2.80;;;1.17;;
35540;SDS011;21650;48.840;9.162;2022-09-14T15:06:46;1.33;;;1.23;;
35540;SDS011;21650;48.840;9.162;2022-09-14T15:09:13;2.70;;;1.10;;
35540;SDS011;21650;48.840;9.162;2022-09-14T15:11:41;3.07;;;1.00;;
35540;SDS011;21650;48.840;9.162;2022-09-14T15:14:09;3.30;;;1.30;;
35540;SDS011;21650;48.840;9.162;2022-09-14T15:16:36;1.50;;;0.93;;
35540;SDS011;21650;48.840;9.162;2022-09-14T15:19:01;1.90;;;1.17;;
35540;SDS011;21650;48.840;9.162;2022-09-14T15:21:38;2.00;;;0.87;;
35540;SDS011;21650;48.840;9.162;2022-09-14T15:24:05;1.57;;;0.83;;
35540;SDS011;21650;48.840;9.162;2022-09-14T15:26:32;2.10;;;1.30;;
35540;SDS011;21650;48.840;9.162;2022-09-14T15:28:59;1.67;;;0.80;;
35540;SDS011;21650;48.840;9.162;2022-09-14T15:34:21;2.00;;;1.10;;
35540;SDS011;21650;48.840;9.162;2022-09-14T15:36:51;1.20;;;0.90;;
35540;SDS011;21650;48.840;9.162;2022-09-14T15:39:26;2.73;;;0.90;;
35540;SDS011;21650;48.840;9.162;2022-09-14T15:41:57;3.10;;;0.80;;
35540;SDS011;21650;48.840;9.162;2022-09-14T15:44:23;1.77;;;1.07;;
35540;SDS011;21650;48.840;9.162;2022-09-14T15:46:49;9.47;;;2.17;;
35540;SDS011;21650;48.840;9.162;2022-09-14T15:49:25;3.33;;;0.90;;
35540;SDS011;21650;48.840;9.162;2022-09-14T15:51:53;1.47;;;0.67;;
35540;SDS011;21650;48.840;9.162;2022-09-14T15:54:24;1.83;;;0.70;;
35540;SDS011;21650;48.840;9.162;2022-09-14T15:56:55;1.80;;;1.00;;
35540;SDS011;21650;48.840;9.162;2022-09-14T15:59:23;0.83;;;0.80;;
35540;SDS011;21650;48.840;9.162;2022-09-14T16:01:49;1.37;;;0.87;;
35540;SDS011;21650;48.840;9.162;2022-09-14T16:04:14;0.60;;;0.60;;
35540;SDS011;21650;48.840;9.162;2022-09-14T16:06:41;1.70;;;0.80;;
35540;SDS011;21650;48.840;9.162;2022-09-14T16:09:08;2.03;;;0.93;;
35540;SDS011;21650;48.840;9.162;2022-09-14T16:11:37;2.03;;;0.90;;
35540;SDS011;21650;48.840;9.162;2022-09-14T16:14:04;1.07;;;0.50;;
35540;SDS011;21650;48.840;9.162;2022-09-14T16:16:33;1.23;;;0.77;;
35540;SDS011;21650;48.840;9.162;2022-09-14T16:19:03;1.30;;;0.90;;
35540;SDS011;21650;48.840;9.162;2022-09-14T16:21:30;3.10;;;0.80;;
35540;SDS011;21650;48.840;9.162;2022-09-14T16:23:57;1.47;;;0.80;;
35540;SDS011;21650;48.840;9.162;2022-09-14T16:26:28;3.03;;;1.27;;
35540;SDS011;21650;48.840;9.162;2022-09-14T16:28:56;0.97;;;0.70;;
35540;SDS011;21650;48.840;9.162;2022-09-14T16:31:25;3.47;;;1.00;;
35540;SDS011;21650;48.840;9.162;2022-09-14T16:33:57;2.23;;;1.30;;
35540;SDS011;21650;48.840;9.162;2022-09-14T16:36:28;2.47;;;1.13;;
35540;SDS011;21650;48.840;9.162;2022-09-14T16:38:58;2.03;;;0.80;;
35540;SDS011;21650;48.840;9.162;2022-09-14T16:41:26;1.30;;;0.87;;
35540;SDS011;21650;48.840;9.162;2022-09-14T16:43:56;2.50;;;1.10;;
35540;SDS011;21650;48.840;9.162;2022-09-14T16:46:27;5.03;;;1.63;;
35540;SDS011;21650;48.840;9.162;2022-09-14T16:48:55;5.50;;;1.20;;
35540;SDS011;21650;48.840;9.162;2022-09-14T16:53:52;1.60;;;1.10;;
35540;SDS011;21650;48.840;9.162;2022-09-14T16:56:20;3.07;;;1.00;;
35540;SDS011;21650;48.840;9.162;2022-09-14T16:58:47;10.90;;;1.50;;
35540;SDS011;21650;48.840;9.162;2022-09-14T17:01:15;3.30;;;1.50;;
35540;SDS011;21650;48.840;9.162;2022-09-14T17:03:43;2.17;;;0.90;;
35540;SDS011;21650;48.840;9.162;2022-09-14T17:06:11;3.27;;;1.23;;
35540;SDS011;21650;48.840;9.162;2022-09-14T17:08:39;1.67;;;0.90;;
35540;SDS011;21650;48.840;9.162;2022-09-14T17:11:05;1.87;;;1.17;;
35540;SDS011;21650;48.840;9.162;2022-09-14T17:13:31;2.87;;;0.90;;
35540;SDS011;21650;48.840;9.162;2022-09-14T17:18:32;2.97;;;1.20;;
35540;SDS011;21650;48.840;9.162;2022-09-14T17:20:59;2.33;;;0.90;;
35540;SDS011;21650;48.840;9.162;2022-09-14T17:23:26;2.53;;;1.20;;
35540;SDS011;21650;48.840;9.162;2022-09-14T17:25:52;2.00;;;1.03;;
35540;SDS011;21650;48.840;9.162;2022-09-14T17:28:20;3.23;;;1.43;;
35540;SDS011;21650;48.840;9.162;2022-09-14T17:30:49;3.03;;;1.23;;
35540;SDS011;21650;48.840;9.162;2022-09-14T17:33:16;2.93;;;1.30;;
35540;SDS011;21650;48.840;9.162;2022-09-14T17:35:46;2.10;;;1.30;;